createdAt,value
2018-06-24T00:00:51.070Z,93.88
2018-06-24T00:01:51.071Z,93.98
2018-06-24T00:02:51.070Z,93.98
2018-06-24T00:03:51.063Z,94.79
2018-06-24T00:04:51.058Z,96.13
2018-06-24T00:05:51.059Z,96.32
2018-06-24T00:06:51.052Z,97.75
2018-06-24T00:07:51.049Z,96.61
2018-06-24T00:08:51.046Z,97.18
2018-06-24T00:09:51.042Z,96.99
2018-06-24T00:10:51.040Z,97.75
2018-06-24T00:11:51.040Z,96.51
2018-06-24T00:12:51.036Z,97.47
2018-06-24T00:13:51.096Z,96.99
2018-06-24T00:14:51.028Z,97.28
2018-06-24T00:15:51.032Z,97.18
2018-06-24T00:16:51.020Z,96.61
2018-06-24T00:17:51.020Z,96.61
2018-06-24T00:18:51.015Z,97.08
2018-06-24T00:19:51.010Z,96.80
2018-06-24T00:20:51.012Z,96.99
2018-06-24T00:21:51.005Z,96.99
2018-06-24T00:22:51.003Z,96.99
2018-06-24T00:23:51.002Z,96.42
2018-06-24T00:24:50.996Z,96.89
2018-06-24T00:25:50.995Z,97.94
2018-06-24T00:26:50.990Z,99.38
2018-06-24T00:27:50.988Z,99.19
2018-06-24T00:28:50.980Z,99.48
2018-06-24T00:29:50.982Z,99.48
2018-06-24T00:30:50.978Z,99.95
2018-06-24T00:31:50.975Z,99.99
2018-06-24T00:32:50.971Z,99.99
2018-06-24T00:33:50.969Z,99.99
2018-06-24T00:34:50.963Z,99.99
2018-06-24T00:35:51.006Z,99.99
2018-06-24T00:36:50.957Z,99.99
2018-06-24T00:37:50.954Z,99.99
2018-06-24T00:38:50.952Z,99.99
2018-06-24T00:39:50.950Z,99.99
2018-06-24T00:40:50.944Z,99.99
2018-06-24T00:41:50.943Z,99.99
2018-06-24T00:42:50.938Z,99.99
2018-06-24T00:43:50.936Z,99.99
2018-06-24T00:44:51.019Z,99.99
2018-06-24T00:45:50.961Z,99.99
2018-06-24T00:46:50.926Z,99.99
2018-06-24T00:47:50.925Z,99.99
2018-06-24T00:48:50.917Z,99.99
2018-06-24T00:49:50.922Z,99.99
2018-06-24T00:50:50.912Z,99.99
2018-06-24T00:51:50.908Z,99.99
2018-06-24T00:52:50.907Z,99.99
2018-06-24T00:53:50.902Z,99.99
2018-06-24T00:54:50.898Z,99.99
2018-06-24T00:55:50.913Z,99.99
2018-06-24T00:56:50.893Z,99.99
2018-06-24T00:57:50.922Z,99.99
2018-06-24T00:58:50.888Z,99.99
2018-06-24T00:59:50.896Z,99.99
2018-06-24T01:00:50.877Z,99.99
2018-06-24T01:01:50.875Z,99.99
2018-06-24T01:02:50.873Z,99.99
2018-06-24T01:03:50.866Z,99.99
2018-06-24T01:04:50.866Z,99.99
2018-06-24T01:05:50.862Z,99.99
2018-06-24T01:06:50.859Z,99.99
2018-06-24T01:07:50.854Z,99.99
2018-06-24T01:08:50.850Z,99.99
2018-06-24T01:09:50.848Z,99.99
2018-06-24T01:10:50.844Z,99.99
2018-06-24T01:11:50.842Z,99.99
2018-06-24T01:12:50.836Z,99.99
2018-06-24T01:13:50.833Z,99.99
2018-06-24T01:14:50.829Z,99.99
2018-06-24T01:15:50.831Z,99.99
2018-06-24T01:16:50.822Z,99.99
2018-06-24T01:17:50.818Z,99.99
2018-06-24T01:18:50.814Z,99.99
2018-06-24T01:19:50.810Z,99.99
2018-06-24T01:20:50.820Z,99.99
2018-06-24T01:21:50.804Z,99.99
2018-06-24T01:22:50.800Z,99.99
2018-06-24T01:23:50.796Z,99.99
2018-06-24T01:24:50.793Z,99.99
2018-06-24T01:25:50.790Z,99.99
2018-06-24T01:26:50.788Z,99.99
2018-06-24T01:27:50.788Z,99.99
2018-06-24T01:28:50.779Z,99.99
2018-06-24T01:29:50.776Z,99.99
2018-06-24T01:30:50.772Z,99.99
2018-06-24T01:31:50.771Z,99.99
2018-06-24T01:32:50.764Z,99.99
2018-06-24T01:33:50.761Z,99.99
2018-06-24T01:34:50.760Z,99.99
2018-06-24T01:35:50.755Z,99.99
2018-06-24T01:36:50.752Z,99.99
2018-06-24T01:37:50.747Z,99.99
2018-06-24T01:38:50.744Z,99.99
2018-06-24T01:39:50.741Z,99.99
2018-06-24T01:40:50.736Z,99.99
2018-06-24T01:41:50.732Z,99.99
2018-06-24T01:42:50.727Z,99.99
2018-06-24T01:43:50.726Z,99.99
2018-06-24T01:44:50.723Z,99.99
2018-06-24T01:45:50.720Z,99.99
2018-06-24T01:46:50.715Z,99.99
2018-06-24T01:47:50.710Z,99.99
2018-06-24T01:48:50.707Z,99.99
2018-06-24T01:49:50.702Z,99.99
2018-06-24T01:50:50.699Z,99.99
2018-06-24T01:51:50.697Z,99.99
2018-06-24T01:52:50.697Z,99.99
2018-06-24T01:53:50.688Z,99.99
2018-06-24T01:54:50.684Z,99.99
2018-06-24T01:55:50.685Z,99.99
2018-06-24T01:56:50.678Z,99.99
2018-06-24T01:57:50.674Z,99.99
2018-06-24T01:58:50.671Z,99.99
2018-06-24T01:59:50.669Z,99.99
2018-06-24T02:00:50.663Z,99.99
2018-06-24T02:01:50.659Z,99.99
2018-06-24T02:02:50.654Z,99.99
2018-06-24T02:03:50.650Z,99.99
2018-06-24T02:04:50.647Z,99.99
2018-06-24T02:05:50.642Z,99.99
2018-06-24T02:06:50.641Z,99.99
2018-06-24T02:07:50.635Z,99.99
2018-06-24T02:08:50.631Z,99.99
2018-06-24T02:09:50.627Z,99.99
2018-06-24T02:10:50.624Z,99.99
2018-06-24T02:11:50.623Z,99.99
2018-06-24T02:12:50.615Z,99.99
2018-06-24T02:13:50.613Z,99.99
2018-06-24T02:14:50.609Z,99.99
2018-06-24T02:15:50.606Z,99.99
2018-06-24T02:16:50.600Z,99.99
2018-06-24T02:17:50.597Z,99.99
2018-06-24T02:18:50.594Z,99.99
2018-06-24T02:19:50.590Z,99.99
2018-06-24T02:20:50.586Z,99.99
2018-06-24T02:21:50.585Z,99.99
2018-06-24T02:22:50.579Z,99.99
2018-06-24T02:23:50.576Z,99.99
2018-06-24T02:24:50.571Z,99.99
2018-06-24T02:25:50.572Z,99.99
2018-06-24T02:26:50.569Z,99.99
2018-06-24T02:27:50.560Z,99.99
2018-06-24T02:28:50.557Z,99.99
2018-06-24T02:29:50.554Z,99.99
2018-06-24T02:30:50.549Z,99.99
2018-06-24T02:31:50.548Z,99.99
2018-06-24T02:32:50.544Z,99.99
2018-06-24T02:33:50.540Z,99.99
2018-06-24T02:34:50.532Z,99.99
2018-06-24T02:35:50.530Z,99.99
2018-06-24T02:36:50.524Z,99.99
2018-06-24T02:37:50.523Z,99.99
2018-06-24T02:38:50.529Z,99.99
2018-06-24T02:39:50.517Z,99.99
2018-06-24T02:40:50.510Z,99.99
2018-06-24T02:41:50.505Z,99.99
2018-06-24T02:42:50.501Z,99.99
2018-06-24T02:43:50.501Z,99.99
2018-06-24T02:44:50.495Z,99.99
2018-06-24T02:45:50.492Z,99.99
2018-06-24T02:46:50.487Z,99.99
2018-06-24T02:47:50.482Z,99.99
2018-06-24T02:48:50.479Z,99.99
2018-06-24T02:49:50.481Z,99.99
2018-06-24T02:50:50.473Z,99.99
2018-06-24T02:51:50.468Z,99.99
2018-06-24T02:52:50.466Z,99.99
2018-06-24T02:53:50.464Z,99.99
2018-06-24T02:54:50.457Z,99.99
2018-06-24T02:55:50.456Z,99.99
2018-06-24T02:56:50.454Z,99.99
2018-06-24T02:57:50.451Z,99.99
2018-06-24T02:58:50.439Z,99.99
2018-06-24T02:59:50.439Z,99.99
2018-06-24T03:00:50.434Z,99.99
2018-06-24T03:01:50.433Z,99.99
2018-06-24T03:02:50.425Z,99.99
2018-06-24T03:03:50.424Z,99.99
2018-06-24T03:04:50.425Z,99.99
2018-06-24T03:05:50.414Z,99.99
2018-06-24T03:06:50.410Z,99.99
2018-06-24T03:07:50.408Z,99.99
2018-06-24T03:08:50.403Z,99.99
2018-06-24T03:09:50.398Z,99.99
2018-06-24T03:10:50.396Z,99.99
2018-06-24T03:11:50.392Z,99.99
2018-06-24T03:12:50.392Z,99.99
2018-06-24T03:13:50.384Z,99.99
2018-06-24T03:14:50.381Z,99.99
2018-06-24T03:15:50.382Z,99.99
2018-06-24T03:16:50.375Z,99.99
2018-06-24T03:17:50.369Z,99.99
2018-06-24T03:18:50.367Z,99.99
2018-06-24T03:19:50.362Z,99.99
2018-06-24T03:20:50.360Z,99.99
2018-06-24T03:21:50.356Z,99.99
2018-06-24T03:22:50.353Z,99.99
2018-06-24T03:23:50.346Z,99.99
2018-06-24T03:24:50.345Z,99.99
2018-06-24T03:25:50.339Z,99.99
2018-06-24T03:26:50.335Z,99.99
2018-06-24T03:27:50.331Z,99.99
2018-06-24T03:28:50.327Z,99.99
2018-06-24T03:29:50.324Z,99.99
2018-06-24T03:30:50.321Z,99.99
2018-06-24T03:31:50.319Z,99.99
2018-06-24T03:32:50.315Z,99.99
2018-06-24T03:33:50.308Z,99.99
2018-06-24T03:34:50.305Z,99.99
2018-06-24T03:35:50.303Z,99.99
2018-06-24T03:36:50.300Z,99.99
2018-06-24T03:37:50.294Z,99.99
2018-06-24T03:38:50.293Z,99.99
2018-06-24T03:39:50.287Z,99.99
2018-06-24T03:40:50.284Z,99.99
2018-06-24T03:41:50.282Z,99.99
2018-06-24T03:42:50.277Z,99.99
2018-06-24T03:43:50.271Z,99.99
2018-06-24T03:44:50.270Z,99.99
2018-06-24T03:45:50.264Z,99.99
2018-06-24T03:46:50.263Z,99.99
2018-06-24T03:47:50.258Z,99.99
2018-06-24T03:48:50.253Z,99.99
2018-06-24T03:49:50.249Z,99.99
2018-06-24T03:50:50.248Z,99.99
2018-06-24T03:51:50.245Z,99.99
2018-06-24T03:52:50.239Z,99.99
2018-06-24T03:53:50.238Z,99.99
2018-06-24T03:54:50.232Z,99.99
2018-06-24T03:55:50.230Z,99.99
2018-06-24T03:56:50.225Z,99.99
2018-06-24T03:57:50.223Z,99.99
2018-06-24T03:58:50.218Z,99.99
2018-06-24T03:59:50.213Z,99.99
2018-06-24T04:00:50.211Z,99.99
2018-06-24T04:01:50.207Z,99.99
2018-06-24T04:02:50.201Z,99.99
2018-06-24T04:03:50.200Z,99.99
2018-06-24T04:04:50.248Z,99.99
2018-06-24T04:05:50.192Z,99.99
2018-06-24T04:06:50.187Z,99.99
2018-06-24T04:07:50.185Z,99.99
2018-06-24T04:08:50.181Z,99.99
2018-06-24T04:09:50.177Z,99.99
2018-06-24T04:10:50.175Z,99.99
2018-06-24T04:11:50.170Z,99.99
2018-06-24T04:12:50.165Z,99.99
2018-06-24T04:13:50.166Z,99.99
2018-06-24T04:14:50.161Z,99.99
2018-06-24T04:15:50.159Z,99.99
2018-06-24T04:16:50.152Z,99.99
2018-06-24T04:17:50.148Z,99.99
2018-06-24T04:18:50.146Z,99.99
2018-06-24T04:19:50.140Z,99.99
2018-06-24T04:20:50.136Z,99.99
2018-06-24T04:21:50.139Z,99.99
2018-06-24T04:22:50.130Z,99.99
2018-06-24T04:23:50.127Z,99.99
2018-06-24T04:24:50.120Z,99.99
2018-06-24T04:25:50.188Z,99.99
2018-06-24T04:26:50.127Z,99.99
2018-06-24T04:27:50.106Z,99.99
2018-06-24T04:28:50.108Z,99.99
2018-06-24T04:29:50.105Z,99.99
2018-06-24T04:30:50.100Z,99.99
2018-06-24T04:31:50.099Z,99.99
2018-06-24T04:32:50.095Z,99.99
2018-06-24T04:33:50.090Z,99.99
2018-06-24T04:34:50.088Z,99.99
2018-06-24T04:35:50.082Z,99.99
2018-06-24T04:36:50.076Z,99.99
2018-06-24T04:37:50.075Z,99.99
2018-06-24T04:38:50.074Z,99.99
2018-06-24T04:39:50.070Z,99.99
2018-06-24T04:40:50.064Z,99.99
2018-06-24T04:41:50.062Z,99.99
2018-06-24T04:42:50.059Z,99.99
2018-06-24T04:43:50.055Z,99.99
2018-06-24T04:44:50.050Z,99.99
2018-06-24T04:45:50.050Z,99.99
2018-06-24T04:46:50.048Z,99.99
2018-06-24T04:47:50.041Z,99.99
2018-06-24T04:48:50.040Z,99.99
2018-06-24T04:49:50.039Z,99.99
2018-06-24T04:50:50.032Z,99.99
2018-06-24T04:51:50.027Z,99.99
2018-06-24T04:52:50.023Z,99.99
2018-06-24T04:53:50.020Z,99.99
2018-06-24T04:54:50.018Z,99.99
2018-06-24T04:55:50.019Z,99.99
2018-06-24T04:56:50.014Z,99.99
2018-06-24T04:57:50.013Z,99.99
2018-06-24T04:58:50.004Z,99.99
2018-06-24T04:59:49.998Z,99.99
2018-06-24T05:00:49.999Z,99.99
2018-06-24T05:01:49.997Z,99.99
2018-06-24T05:02:49.990Z,99.99
2018-06-24T05:03:49.986Z,99.99
2018-06-24T05:04:49.981Z,99.99
2018-06-24T05:05:49.980Z,99.99
2018-06-24T05:06:49.982Z,99.99
2018-06-24T05:07:49.977Z,99.99
2018-06-24T05:08:49.974Z,99.99
2018-06-24T05:09:49.972Z,99.99
2018-06-24T05:10:49.967Z,99.99
2018-06-24T05:11:49.963Z,99.99
2018-06-24T05:12:49.960Z,99.99
2018-06-24T05:13:49.955Z,99.99
2018-06-24T05:14:49.949Z,99.99
2018-06-24T05:15:49.953Z,99.99
2018-06-24T05:16:49.947Z,99.52
2018-06-24T05:17:49.945Z,97.61
2018-06-24T05:18:49.940Z,98.47
2018-06-24T05:19:49.944Z,98.95
2018-06-24T05:20:49.932Z,99.14
2018-06-24T05:21:49.936Z,97.80
2018-06-24T05:22:49.928Z,98.66
2018-06-24T05:23:49.922Z,99.04
2018-06-24T05:24:49.921Z,97.99
2018-06-24T05:25:49.916Z,99.10
2018-06-24T05:26:49.920Z,99.67
2018-06-24T05:27:49.913Z,98.90
2018-06-24T05:28:49.906Z,98.04
2018-06-24T05:29:49.906Z,97.28
2018-06-24T05:30:49.903Z,96.56
2018-06-24T05:31:49.900Z,96.75
2018-06-24T05:32:49.897Z,95.31
2018-06-24T05:33:49.893Z,94.74
2018-06-24T05:34:49.892Z,95.98
2018-06-24T05:35:49.889Z,95.70
2018-06-24T05:36:49.884Z,95.41
2018-06-24T05:37:49.895Z,94.55
2018-06-24T05:38:49.882Z,95.61
2018-06-24T05:39:49.878Z,94.26
2018-06-24T05:40:49.873Z,94.17
2018-06-24T05:41:49.874Z,93.88
2018-06-24T05:42:49.910Z,93.88
2018-06-24T05:43:49.866Z,94.17
2018-06-24T05:44:49.864Z,94.07
2018-06-24T05:45:49.860Z,93.79
2018-06-24T05:46:49.856Z,94.07
2018-06-24T05:47:49.854Z,93.69
2018-06-24T05:48:49.876Z,93.88
2018-06-24T05:49:49.848Z,94.26
2018-06-24T05:50:49.846Z,94.55
2018-06-24T05:51:49.842Z,95.70
2018-06-24T05:52:49.840Z,94.84
2018-06-24T05:53:49.837Z,93.69
2018-06-24T05:54:49.833Z,94.45
2018-06-24T05:55:49.833Z,94.26
2018-06-24T05:56:49.828Z,93.69
2018-06-24T05:57:49.825Z,93.40
2018-06-24T05:58:49.825Z,93.69
2018-06-24T05:59:49.822Z,92.73
2018-06-24T06:00:49.819Z,93.07
2018-06-24T06:01:49.816Z,92.92
2018-06-24T06:02:49.827Z,93.83
2018-06-24T06:03:49.810Z,93.64
2018-06-24T06:04:49.808Z,92.21
2018-06-24T06:05:49.805Z,92.97
2018-06-24T06:06:49.803Z,91.92
2018-06-24T06:07:49.800Z,91.53
2018-06-24T06:08:49.798Z,92.01
2018-06-24T06:09:49.794Z,91.34
2018-06-24T06:10:49.809Z,92.30
2018-06-24T06:11:49.792Z,91.05
2018-06-24T06:12:49.792Z,91.86
2018-06-24T06:13:49.786Z,92.35
2018-06-24T06:14:49.784Z,89.76
2018-06-24T06:15:49.783Z,91.67
2018-06-24T06:16:49.797Z,91.19
2018-06-24T06:17:49.776Z,90.81
2018-06-24T06:18:49.776Z,89.95
2018-06-24T06:19:49.773Z,89.28
2018-06-24T06:20:49.769Z,89.28
2018-06-24T06:21:49.833Z,90.72
2018-06-24T06:22:49.767Z,90.81
2018-06-24T06:23:49.766Z,91.63
2018-06-24T06:24:49.765Z,89.42
2018-06-24T06:25:49.760Z,87.02
2018-06-24T06:26:49.760Z,87.02
2018-06-24T06:27:49.756Z,87.74
2018-06-24T06:28:49.758Z,88.65
2018-06-24T06:29:49.755Z,88.17
2018-06-24T06:30:49.756Z,88.37
2018-06-24T06:31:49.749Z,88.46
2018-06-24T06:32:49.747Z,87.79
2018-06-24T06:33:49.744Z,86.64
2018-06-24T06:34:49.748Z,86.69
2018-06-24T06:35:49.743Z,87.37
2018-06-24T06:36:49.779Z,87.31
2018-06-24T06:37:49.737Z,86.25
2018-06-24T06:38:49.736Z,87.12
2018-06-24T06:39:49.735Z,86.83
2018-06-24T06:40:49.738Z,87.98
2018-06-24T06:41:49.732Z,86.16
2018-06-24T06:42:49.730Z,85.54
2018-06-24T06:43:49.729Z,84.63
2018-06-24T06:44:49.728Z,85.49
2018-06-24T06:45:49.873Z,85.88
2018-06-24T06:46:49.724Z,88.46
2018-06-24T06:47:49.722Z,86.16
2018-06-24T06:48:49.718Z,85.01
2018-06-24T06:49:49.718Z,85.58
2018-06-24T06:50:49.718Z,85.21
2018-06-24T06:51:49.719Z,84.58
2018-06-24T06:52:49.713Z,85.05
2018-06-24T06:53:49.711Z,84.77
2018-06-24T06:54:49.711Z,85.05
2018-06-24T06:55:49.726Z,85.25
2018-06-24T06:56:49.707Z,84.67
2018-06-24T06:57:49.740Z,86.01
2018-06-24T06:58:49.708Z,87.07
2018-06-24T06:59:49.705Z,86.11
2018-06-24T07:00:49.704Z,86.01
2018-06-24T07:01:49.702Z,85.44
2018-06-24T07:02:49.698Z,85.63
2018-06-24T07:03:49.701Z,85.25
2018-06-24T07:04:49.700Z,85.05
2018-06-24T07:05:49.708Z,86.49
2018-06-24T07:06:49.697Z,86.88
2018-06-24T07:07:49.695Z,86.88
2018-06-24T07:08:49.695Z,86.58
2018-06-24T07:09:49.692Z,86.40
2018-06-24T07:10:49.691Z,87.84
2018-06-24T07:11:49.689Z,87.26
2018-06-24T07:12:49.687Z,88.22
2018-06-24T07:13:49.686Z,86.97
2018-06-24T07:14:49.684Z,86.68
2018-06-24T07:15:49.691Z,85.72
2018-06-24T07:16:49.684Z,87.07
2018-06-24T07:17:49.682Z,86.88
2018-06-24T07:18:49.682Z,86.92
2018-06-24T07:19:49.681Z,87.49
2018-06-24T07:20:49.680Z,86.25
2018-06-24T07:21:49.677Z,85.77
2018-06-24T07:22:49.677Z,84.14
2018-06-24T07:23:49.677Z,83.91
2018-06-24T07:24:49.678Z,85.48
2018-06-24T07:25:49.674Z,85.10
2018-06-24T07:26:49.673Z,84.71
2018-06-24T07:27:49.713Z,84.42
2018-06-24T07:28:49.670Z,85.19
2018-06-24T07:29:49.675Z,82.89
2018-06-24T07:30:49.670Z,83.94
2018-06-24T07:31:49.670Z,83.94
2018-06-24T07:32:49.667Z,84.61
2018-06-24T07:33:49.797Z,83.85
2018-06-24T07:34:49.666Z,83.18
2018-06-24T07:35:49.667Z,83.94
2018-06-24T07:36:49.663Z,81.45
2018-06-24T07:37:49.665Z,81.35
2018-06-24T07:38:49.668Z,82.21
2018-06-24T07:39:49.660Z,81.84
2018-06-24T07:40:49.661Z,81.64
2018-06-24T07:41:49.660Z,82.31
2018-06-24T07:42:49.663Z,82.98
2018-06-24T07:43:49.661Z,85.00
2018-06-24T07:44:49.657Z,83.37
2018-06-24T07:45:49.657Z,83.65
2018-06-24T07:46:49.672Z,83.47
2018-06-24T07:47:49.659Z,83.18
2018-06-24T07:48:49.657Z,83.08
2018-06-24T07:49:49.655Z,81.54
2018-06-24T07:50:49.654Z,81.64
2018-06-24T07:51:49.655Z,82.21
2018-06-24T07:52:49.655Z,82.98
2018-06-24T07:53:49.654Z,82.51
2018-06-24T07:54:49.655Z,81.68
2018-06-24T07:55:49.651Z,83.70
2018-06-24T07:56:49.650Z,82.93
2018-06-24T07:57:49.649Z,81.49
2018-06-24T07:58:49.650Z,81.01
2018-06-24T07:59:49.650Z,81.10
2018-06-24T08:00:49.655Z,79.47
2018-06-24T08:01:49.652Z,79.96
2018-06-24T08:02:49.649Z,79.61
2018-06-24T08:03:49.649Z,79.03
2018-06-24T08:04:49.651Z,77.98
2018-06-24T08:05:49.648Z,78.36
2018-06-24T08:06:49.654Z,79.99
2018-06-24T08:07:49.650Z,77.25
2018-06-24T08:08:49.647Z,77.40
2018-06-24T08:09:49.646Z,76.92
2018-06-24T08:10:49.648Z,77.21
2018-06-24T08:11:49.646Z,79.55
2018-06-24T08:12:49.645Z,79.65
2018-06-24T08:13:49.644Z,79.55
2018-06-24T08:14:49.647Z,79.46
2018-06-24T08:15:49.645Z,78.50
2018-06-24T08:16:49.647Z,75.48
2018-06-24T08:17:49.646Z,76.34
2018-06-24T08:18:49.647Z,77.21
2018-06-24T08:19:49.644Z,75.48
2018-06-24T08:20:49.645Z,75.29
2018-06-24T08:21:49.646Z,75.63
2018-06-24T08:22:49.668Z,77.78
2018-06-24T08:23:49.646Z,78.17
2018-06-24T08:24:49.644Z,77.69
2018-06-24T08:25:49.646Z,77.11
2018-06-24T08:26:49.646Z,76.92
2018-06-24T08:27:49.644Z,77.98
2018-06-24T08:28:49.645Z,76.64
2018-06-24T08:29:49.647Z,75.77
2018-06-24T08:30:49.646Z,77.53
2018-06-24T08:31:49.645Z,78.02
2018-06-24T08:32:49.644Z,76.64
2018-06-24T08:33:49.643Z,76.82
2018-06-24T08:34:49.646Z,76.82
2018-06-24T08:35:49.644Z,77.11
2018-06-24T08:36:49.645Z,78.75
2018-06-24T08:37:49.642Z,77.40
2018-06-24T08:38:49.644Z,78.59
2018-06-24T08:39:49.644Z,77.15
2018-06-24T08:40:49.644Z,77.63
2018-06-24T08:41:49.645Z,78.11
2018-06-24T08:42:49.643Z,78.59
2018-06-24T08:43:49.644Z,78.11
2018-06-24T08:44:49.649Z,78.02
2018-06-24T08:45:49.645Z,79.07
2018-06-24T08:46:49.646Z,78.21
2018-06-24T08:47:49.645Z,78.02
2018-06-24T08:48:49.646Z,79.07
2018-06-24T08:49:49.645Z,80.71
2018-06-24T08:50:49.646Z,79.50
2018-06-24T08:51:49.646Z,79.98
2018-06-24T08:52:49.645Z,78.83
2018-06-24T08:53:49.646Z,77.86
2018-06-24T08:54:49.647Z,78.25
2018-06-24T08:55:49.649Z,76.90
2018-06-24T08:56:49.645Z,78.06
2018-06-24T08:57:49.647Z,78.09
2018-06-24T08:58:49.647Z,75.27
2018-06-24T08:59:49.653Z,75.56
2018-06-24T09:00:49.651Z,76.71
2018-06-24T09:01:49.650Z,76.61
2018-06-24T09:02:49.656Z,75.17
2018-06-24T09:03:49.649Z,75.46
2018-06-24T09:04:49.648Z,74.30
2018-06-24T09:05:49.652Z,74.25
2018-06-24T09:06:49.649Z,74.05
2018-06-24T09:07:49.652Z,73.28
2018-06-24T09:08:49.652Z,72.03
2018-06-24T09:09:49.653Z,71.55
2018-06-24T09:10:49.651Z,73.00
2018-06-24T09:11:49.653Z,73.71
2018-06-24T09:12:49.653Z,70.92
2018-06-24T09:13:49.655Z,70.62
2018-06-24T09:14:49.669Z,69.15
2018-06-24T09:15:49.692Z,70.01
2018-06-24T09:16:49.655Z,71.61
2018-06-24T09:17:49.654Z,72.58
2018-06-24T09:18:49.654Z,71.91
2018-06-24T09:19:49.656Z,72.86
2018-06-24T09:20:49.655Z,72.58
2018-06-24T09:21:49.656Z,72.52
2018-06-24T09:22:49.656Z,71.46
2018-06-24T09:23:49.657Z,69.15
2018-06-24T09:24:49.658Z,68.41
2018-06-24T09:25:49.660Z,68.80
2018-06-24T09:26:49.657Z,69.22
2018-06-24T09:27:49.659Z,70.15
2018-06-24T09:28:49.660Z,69.95
2018-06-24T09:29:49.659Z,70.53
2018-06-24T09:30:49.712Z,70.43
2018-06-24T09:31:49.662Z,71.84
2018-06-24T09:32:49.661Z,71.65
2018-06-24T09:33:49.661Z,71.94
2018-06-24T09:34:49.663Z,70.98
2018-06-24T09:35:49.662Z,69.67
2018-06-24T09:36:49.663Z,68.70
2018-06-24T09:37:49.666Z,70.53
2018-06-24T09:38:49.665Z,70.05
2018-06-24T09:39:49.667Z,71.01
2018-06-24T09:40:49.667Z,71.11
2018-06-24T09:41:49.665Z,71.20
2018-06-24T09:42:49.669Z,70.72
2018-06-24T09:43:49.691Z,70.86
2018-06-24T09:44:49.667Z,69.60
2018-06-24T09:45:49.668Z,70.56
2018-06-24T09:46:49.671Z,69.02
2018-06-24T09:47:49.671Z,69.57
2018-06-24T09:48:49.670Z,69.57
2018-06-24T09:49:49.673Z,68.13
2018-06-24T09:50:49.675Z,68.03
2018-06-24T09:51:49.675Z,68.13
2018-06-24T09:52:49.735Z,67.93
2018-06-24T09:53:49.675Z,68.99
2018-06-24T09:54:49.675Z,67.49
2018-06-24T09:55:49.675Z,66.91
2018-06-24T09:56:49.676Z,67.26
2018-06-24T09:57:49.677Z,67.26
2018-06-24T09:58:49.677Z,67.35
2018-06-24T09:59:49.678Z,68.38
2018-06-24T10:00:49.677Z,68.57
2018-06-24T10:01:49.681Z,67.90
2018-06-24T10:02:49.684Z,69.15
2018-06-24T10:03:49.986Z,68.86
2018-06-24T10:04:49.681Z,68.48
2018-06-24T10:05:49.682Z,68.09
2018-06-24T10:06:49.685Z,68.09
2018-06-24T10:07:49.686Z,67.68
2018-06-24T10:08:49.684Z,67.68
2018-06-24T10:09:49.685Z,68.44
2018-06-24T10:10:49.685Z,69.21
2018-06-24T10:11:49.687Z,71.81
2018-06-24T10:12:49.687Z,71.55
2018-06-24T10:13:49.687Z,69.06
2018-06-24T10:14:49.689Z,68.96
2018-06-24T10:15:49.692Z,69.34
2018-06-24T10:16:49.687Z,71.17
2018-06-24T10:17:49.689Z,67.90
2018-06-24T10:18:49.689Z,68.57
2018-06-24T10:19:49.691Z,69.34
2018-06-24T10:20:49.689Z,70.40
2018-06-24T10:21:49.690Z,68.38
2018-06-24T10:22:49.690Z,69.06
2018-06-24T10:23:49.693Z,70.40
2018-06-24T10:24:49.691Z,69.53
2018-06-24T10:25:49.692Z,68.57
2018-06-24T10:26:49.694Z,70.01
2018-06-24T10:27:49.694Z,67.35
2018-06-24T10:28:49.695Z,66.94
2018-06-24T10:29:49.695Z,66.88
2018-06-24T10:30:49.744Z,68.51
2018-06-24T10:31:49.696Z,65.81
2018-06-24T10:32:49.696Z,66.30
2018-06-24T10:33:49.701Z,66.97
2018-06-24T10:34:49.700Z,65.72
2018-06-24T10:35:49.700Z,66.04
2018-06-24T10:36:49.698Z,65.08
2018-06-24T10:37:49.701Z,64.05
2018-06-24T10:38:49.703Z,63.76
2018-06-24T10:39:49.706Z,65.72
2018-06-24T10:40:49.703Z,63.50
2018-06-24T10:41:49.702Z,62.63
2018-06-24T10:42:49.705Z,62.83
2018-06-24T10:43:49.708Z,61.48
2018-06-24T10:44:49.705Z,61.74
2018-06-24T10:45:49.706Z,63.47
2018-06-24T10:46:49.708Z,63.67
2018-06-24T10:47:49.710Z,63.82
2018-06-24T10:48:49.711Z,64.98
2018-06-24T10:49:49.711Z,64.79
2018-06-24T10:50:49.713Z,65.75
2018-06-24T10:51:49.714Z,65.33
2018-06-24T10:52:49.722Z,65.14
2018-06-24T10:53:49.716Z,65.81
2018-06-24T10:54:49.716Z,66.01
2018-06-24T10:55:49.717Z,67.07
2018-06-24T10:56:49.721Z,66.49
2018-06-24T10:57:49.721Z,65.14
2018-06-24T10:58:49.722Z,64.95
2018-06-24T10:59:49.724Z,64.02
2018-06-24T11:00:49.723Z,66.71
2018-06-24T11:01:49.782Z,65.17
2018-06-24T11:02:49.726Z,64.12
2018-06-24T11:03:49.727Z,63.25
2018-06-24T11:04:49.725Z,63.15
2018-06-24T11:05:49.726Z,63.28
2018-06-24T11:06:49.731Z,63.50
2018-06-24T11:07:49.732Z,62.83
2018-06-24T11:08:49.731Z,62.25
2018-06-24T11:09:49.735Z,62.15
2018-06-24T11:10:49.734Z,63.60
2018-06-24T11:11:49.734Z,63.70
2018-06-24T11:12:49.735Z,62.06
2018-06-24T11:13:49.737Z,60.90
2018-06-24T11:14:49.737Z,62.66
2018-06-24T11:15:49.740Z,60.35
2018-06-24T11:16:49.741Z,60.83
2018-06-24T11:17:49.740Z,62.22
2018-06-24T11:18:49.744Z,59.90
2018-06-24T11:19:49.746Z,59.45
2018-06-24T11:20:49.745Z,58.75
2018-06-24T11:21:49.809Z,59.74
2018-06-24T11:22:49.749Z,57.71
2018-06-24T11:23:49.750Z,57.62
2018-06-24T11:24:49.756Z,58.87
2018-06-24T11:25:49.758Z,58.65
2018-06-24T11:26:49.755Z,59.42
2018-06-24T11:27:49.755Z,60.48
2018-06-24T11:28:49.758Z,60.86
2018-06-24T11:29:49.759Z,60.19
2018-06-24T11:30:49.760Z,59.23
2018-06-24T11:31:49.763Z,59.32
2018-06-24T11:32:49.765Z,59.48
2018-06-24T11:33:49.765Z,60.64
2018-06-24T11:34:49.768Z,61.13
2018-06-24T11:35:49.769Z,61.80
2018-06-24T11:36:49.769Z,61.90
2018-06-24T11:37:49.773Z,61.35
2018-06-24T11:38:49.777Z,61.47
2018-06-24T11:39:49.777Z,59.52
2018-06-24T11:40:49.781Z,59.52
2018-06-24T11:41:49.782Z,60.06
2018-06-24T11:42:49.785Z,60.83
2018-06-24T11:43:49.785Z,60.26
2018-06-24T11:44:49.788Z,59.45
2018-06-24T11:45:49.792Z,60.80
2018-06-24T11:46:49.791Z,61.38
2018-06-24T11:47:49.834Z,61.68
2018-06-24T11:48:49.798Z,62.25
2018-06-24T11:49:49.797Z,61.71
2018-06-24T11:50:49.799Z,60.16
2018-06-24T11:51:49.801Z,61.03
2018-06-24T11:52:49.805Z,59.90
2018-06-24T11:53:49.810Z,59.20
2018-06-24T11:54:49.809Z,61.54
2018-06-24T11:55:49.811Z,61.16
2018-06-24T11:56:49.866Z,62.12
2018-06-24T11:57:49.817Z,60.77
2018-06-24T11:58:49.822Z,59.23
2018-06-24T11:59:49.820Z,59.80
2018-06-24T12:00:49.822Z,59.48
2018-06-24T12:01:49.824Z,59.10
2018-06-24T12:02:49.826Z,59.30
2018-06-24T12:03:49.829Z,59.58
2018-06-24T12:04:49.831Z,60.52
2018-06-24T12:05:49.831Z,60.90
2018-06-24T12:06:49.875Z,60.80
2018-06-24T12:07:49.839Z,62.45
2018-06-24T12:08:49.839Z,63.50
2018-06-24T12:09:49.932Z,63.79
2018-06-24T12:10:49.897Z,62.35
2018-06-24T12:11:49.847Z,62.15
2018-06-24T12:12:49.847Z,61.96
2018-06-24T12:13:49.849Z,62.25
2018-06-24T12:14:49.855Z,62.90
2018-06-24T12:15:49.855Z,62.22
2018-06-24T12:16:49.856Z,63.47
2018-06-24T12:17:49.857Z,61.96
2018-06-24T12:18:49.860Z,60.90
2018-06-24T12:19:49.861Z,62.93
2018-06-24T12:20:49.861Z,61.00
2018-06-24T12:21:49.864Z,60.61
2018-06-24T12:22:49.872Z,60.35
2018-06-24T12:23:49.867Z,60.28
2018-06-24T12:24:49.870Z,62.25
2018-06-24T12:25:49.872Z,58.32
2018-06-24T12:26:49.874Z,59.12
2018-06-24T12:27:49.877Z,56.77
2018-06-24T12:28:49.883Z,58.51
2018-06-24T12:29:49.880Z,57.54
2018-06-24T12:30:49.919Z,56.77
2018-06-24T12:31:49.886Z,57.26
2018-06-24T12:32:49.887Z,57.74
2018-06-24T12:33:49.892Z,58.64
2018-06-24T12:34:49.893Z,57.21
2018-06-24T12:35:49.895Z,55.31
2018-06-24T12:36:49.897Z,55.15
2018-06-24T12:37:49.900Z,53.02
2018-06-24T12:38:49.905Z,55.82
2018-06-24T12:39:49.912Z,56.04
2018-06-24T12:40:49.909Z,54.59
2018-06-24T12:41:49.913Z,54.11
2018-06-24T12:42:49.918Z,54.27
2018-06-24T12:43:49.922Z,53.91
2018-06-24T12:44:49.923Z,55.46
2018-06-24T12:45:49.927Z,53.07
2018-06-24T12:46:49.934Z,54.13
2018-06-24T12:47:49.939Z,50.72
2018-06-24T12:48:49.938Z,52.17
2018-06-24T12:49:49.940Z,50.62
2018-06-24T12:50:49.943Z,52.56
2018-06-24T12:51:49.947Z,53.33
2018-06-24T12:52:50.019Z,52.08